createdAt,value
2019-05-05T00:02:55.312Z,99749.43
2019-05-05T00:07:59.416Z,99762.05
2019-05-05T00:13:15.007Z,99766.80
2019-05-05T00:18:22.625Z,99766.66
2019-05-05T00:23:26.799Z,99766.56
2019-05-05T00:28:30.947Z,99745.59
2019-05-05T00:33:35.178Z,99745.59
2019-05-05T00:38:39.272Z,99763.72
2019-05-05T00:43:45.131Z,99788.78
2019-05-05T00:48:49.420Z,99788.78
2019-05-05T00:53:55.501Z,99809.93
2019-05-05T00:59:04.567Z,99816.88
2019-05-05T01:04:10.401Z,99816.88
2019-05-05T01:09:18.845Z,99836.43
2019-05-05T01:14:24.884Z,99836.43
2019-05-05T01:19:28.936Z,99844.59
2019-05-05T01:24:34.222Z,99854.63
2019-05-05T01:29:38.458Z,99861.20
2019-05-05T01:34:45.046Z,99861.20
2019-05-05T01:39:55.915Z,99875.30
2019-05-05T01:45:00.012Z,99875.30
2019-05-05T01:50:17.539Z,99872.73
2019-05-05T01:55:11.534Z,99878.27
2019-05-05T02:00:15.948Z,99881.42
2019-05-05T02:05:20.118Z,99890.95
2019-05-05T02:10:25.427Z,99893.86
2019-05-05T02:15:29.854Z,99902.91
2019-05-05T02:20:44.916Z,99902.91
2019-05-05T02:25:48.786Z,99896.80
2019-05-05T02:31:00.218Z,99895.95
2019-05-05T02:36:05.595Z,99928.18
2019-05-05T02:41:10.393Z,99928.18
2019-05-05T02:46:40.309Z,99930.50
2019-05-05T02:51:46.024Z,99952.43
2019-05-05T02:56:54.099Z,99952.43
2019-05-05T03:02:04.295Z,99966.61
2019-05-05T03:07:10.835Z,99974.02
2019-05-05T03:12:17.097Z,99967.30
2019-05-05T03:17:23.337Z,99971.56
2019-05-05T03:22:27.784Z,99966.83
2019-05-05T03:27:33.993Z,99975.09
2019-05-05T03:32:37.891Z,99990.42
2019-05-05T03:37:44.504Z,99995.92
2019-05-05T03:42:54.648Z,100008.62
2019-05-05T03:47:59.561Z,99993.13
2019-05-05T03:53:04.943Z,100008.45
2019-05-05T03:58:09.342Z,100011.83
2019-05-05T04:03:14.696Z,100020.75
2019-05-05T04:08:19.240Z,100017.83
2019-05-05T04:13:24.417Z,100029.91
2019-05-05T04:18:30.176Z,100034.91
2019-05-05T04:23:34.303Z,100027.41
2019-05-05T04:28:38.337Z,100027.41
2019-05-05T04:33:44.359Z,100027.33
2019-05-05T04:38:48.145Z,100029.81
2019-05-05T04:43:54.550Z,100044.11
2019-05-05T04:49:08.895Z,100045.94
2019-05-05T04:54:18.883Z,100045.94
2019-05-05T04:59:23.602Z,100045.94
2019-05-05T05:04:55.921Z,100058.98
2019-05-05T05:09:59.957Z,100059.31
2019-05-05T05:15:04.498Z,100070.73
2019-05-05T05:20:08.764Z,100070.73
2019-05-05T05:25:13.564Z,100090.95
2019-05-05T05:30:18.009Z,100095.28
2019-05-05T05:35:24.227Z,100095.79
2019-05-05T05:40:44.446Z,100101.23
2019-05-05T05:46:06.546Z,100107.15
2019-05-05T05:51:14.611Z,100107.15
2019-05-05T05:56:18.780Z,100116.55
2019-05-05T06:01:23.961Z,100123.89
2019-05-05T06:06:28.194Z,100133.97
2019-05-05T06:11:34.300Z,100135.57
2019-05-05T06:16:38.127Z,100140.38
2019-05-05T06:21:44.059Z,100143.33
2019-05-05T06:26:48.213Z,100145.82
2019-05-05T06:31:53.798Z,100143.38
2019-05-05T06:36:57.988Z,100143.38
2019-05-05T06:42:09.558Z,100145.87
2019-05-05T06:47:19.675Z,100145.16
2019-05-05T06:52:24.848Z,100141.48
2019-05-05T06:57:29.008Z,100136.39
2019-05-05T07:02:35.748Z,100137.05
2019-05-05T07:07:39.793Z,100158.36
2019-05-05T07:12:44.255Z,100164.74
2019-05-05T07:17:48.240Z,100156.42
2019-05-05T07:23:01.479Z,100157.42
2019-05-05T07:27:58.550Z,100157.16
2019-05-05T07:33:04.569Z,100155.34
2019-05-05T07:38:09.265Z,100155.34
2019-05-05T07:43:14.618Z,100159.13
2019-05-05T07:48:18.842Z,100166.48
2019-05-05T07:53:24.493Z,100174.77
2019-05-05T07:58:28.675Z,100174.77
2019-05-05T08:03:33.860Z,100189.69
2019-05-05T08:08:38.423Z,100189.69
2019-05-05T08:13:44.365Z,100190.23
2019-05-05T08:19:06.390Z,100205.84
2019-05-05T08:24:16.502Z,100204.48
2019-05-05T08:29:35.941Z,100204.48
2019-05-05T08:34:54.379Z,100198.23
2019-05-05T08:39:46.011Z,100201.19
2019-05-05T08:44:50.110Z,100201.07
2019-05-05T08:49:54.193Z,100194.14
2019-05-05T08:54:58.308Z,100197.16
2019-05-05T09:00:04.713Z,100198.02
2019-05-05T09:05:08.469Z,100198.02
2019-05-05T09:10:14.285Z,100195.61
2019-05-05T09:15:18.613Z,100195.00
2019-05-05T09:20:24.223Z,100194.43
2019-05-05T09:25:40.742Z,100194.34
2019-05-05T09:30:46.711Z,100189.14
2019-05-05T09:35:51.022Z,100194.52
2019-05-05T09:40:55.130Z,100197.27
2019-05-05T09:45:59.172Z,100197.27
2019-05-05T09:51:04.336Z,100197.20
2019-05-05T09:56:08.737Z,100197.20
2019-05-05T10:01:14.030Z,100189.73
2019-05-05T10:06:18.278Z,100209.74
2019-05-05T10:11:23.837Z,100217.70
2019-05-05T10:16:28.164Z,100219.83
2019-05-05T10:21:33.927Z,100219.83
2019-05-05T10:26:38.089Z,100207.27
2019-05-05T10:31:43.658Z,100206.41
2019-05-05T10:36:47.992Z,100212.09
2019-05-05T10:41:54.684Z,100216.45
2019-05-05T10:46:58.222Z,100218.99
2019-05-05T10:52:03.695Z,100196.58
2019-05-05T10:57:07.973Z,100196.58
2019-05-05T11:02:14.090Z,100218.50
2019-05-05T11:07:18.514Z,100211.92
2019-05-05T11:12:24.587Z,100211.92
2019-05-05T11:17:28.829Z,100201.39
2019-05-05T11:22:34.651Z,100207.47
2019-05-05T11:27:39.020Z,100208.78
2019-05-05T11:33:00.684Z,100199.05
2019-05-05T11:38:04.959Z,100212.12
2019-05-05T11:43:09.038Z,100213.59
2019-05-05T11:48:14.773Z,100202.05
2019-05-05T11:53:19.084Z,100216.70
2019-05-05T11:58:25.045Z,100220.30
2019-05-05T12:03:29.220Z,100221.01
2019-05-05T12:08:34.496Z,100229.25
2019-05-05T12:13:38.785Z,100229.25
2019-05-05T12:18:44.878Z,100221.06
2019-05-05T12:23:48.590Z,100221.06
2019-05-05T12:29:10.603Z,100224.82
2019-05-05T12:34:14.718Z,100216.77
2019-05-05T12:39:18.882Z,100219.60
2019-05-05T12:44:31.111Z,100219.60
2019-05-05T12:49:35.217Z,100222.64
2019-05-05T12:54:39.289Z,100221.98
2019-05-05T12:59:44.425Z,100221.98
2019-05-05T13:04:48.630Z,100223.70
2019-05-05T13:09:54.393Z,100217.83
2019-05-05T13:14:58.414Z,100218.34
2019-05-05T13:20:20.155Z,100218.34
2019-05-05T13:25:56.171Z,100201.56
2019-05-05T13:30:55.293Z,100208.03
2019-05-05T13:35:59.595Z,100212.33
2019-05-05T13:41:03.904Z,100217.11
2019-05-05T13:46:21.041Z,100213.13
2019-05-05T13:51:25.172Z,100214.22
2019-05-05T13:56:29.378Z,100212.51
2019-05-05T14:01:34.223Z,100218.15
2019-05-05T14:07:05.292Z,100214.09
2019-05-05T14:11:49.030Z,100210.61
2019-05-05T14:16:53.854Z,100206.91
2019-05-05T14:22:00.047Z,100202.80
2019-05-05T14:27:05.904Z,100202.80
2019-05-05T14:32:13.495Z,100199.72
2019-05-05T14:37:34.094Z,100192.03
2019-05-05T14:42:38.314Z,100207.33
2019-05-05T14:47:44.140Z,100203.31
2019-05-05T14:52:48.179Z,100205.03
2019-05-05T14:57:53.462Z,100205.03
2019-05-05T15:02:57.782Z,100194.80
2019-05-05T15:08:13.719Z,100182.34
2019-05-05T15:13:17.775Z,100187.00
2019-05-05T15:18:23.984Z,100184.66
2019-05-05T15:23:27.847Z,100194.80
2019-05-05T15:28:33.648Z,100194.80
2019-05-05T15:38:56.019Z,100187.79
2019-05-05T15:44:00.060Z,100192.30
2019-05-05T15:49:04.370Z,100192.30
2019-05-05T15:54:08.555Z,100198.74
2019-05-05T15:59:14.320Z,100196.14
2019-05-05T16:04:18.479Z,100193.08
2019-05-05T16:09:22.512Z,100199.61
2019-05-05T16:14:26.609Z,100199.61
2019-05-05T16:19:39.253Z,100185.95
2019-05-05T16:24:44.728Z,100185.95
2019-05-05T16:29:48.889Z,100191.77
2019-05-05T16:34:54.754Z,100195.38
2019-05-05T16:39:58.667Z,100194.72
2019-05-05T16:45:04.516Z,100192.90
2019-05-05T16:50:09.620Z,100192.90
2019-05-05T16:55:23.852Z,100189.32
2019-05-05T17:00:28.185Z,100190.77
2019-05-05T17:05:34.473Z,100186.85
2019-05-05T17:10:38.288Z,100186.85
2019-05-05T17:15:56.848Z,100187.09
2019-05-05T17:21:04.263Z,100183.14
2019-05-05T17:26:08.590Z,100183.14
2019-05-05T17:31:12.848Z,100198.38
2019-05-05T17:36:17.160Z,100202.92
2019-05-05T17:41:49.480Z,100201.81
2019-05-05T17:47:01.268Z,100201.81
2019-05-05T17:52:14.199Z,100209.53
2019-05-05T17:57:18.038Z,100213.11
2019-05-05T18:02:23.684Z,100213.11
2019-05-05T18:07:47.810Z,100200.59
2019-05-05T18:13:09.358Z,100218.71
2019-05-05T18:18:14.019Z,100205.16
2019-05-05T18:23:18.314Z,100224.64
2019-05-05T18:28:24.542Z,100224.64
2019-05-05T18:33:28.543Z,100237.80
2019-05-05T18:38:33.658Z,100239.97
2019-05-05T18:43:50.084Z,100248.16
2019-05-05T18:48:54.525Z,100253.08
2019-05-05T18:53:58.820Z,100253.08
2019-05-05T18:59:06.209Z,100257.01
2019-05-05T19:04:26.918Z,100258.30
2019-05-05T19:09:30.985Z,100258.30
2019-05-05T19:14:35.102Z,100258.60
2019-05-05T19:19:40.797Z,100254.80
2019-05-05T19:24:44.889Z,100260.13
2019-05-05T19:29:48.947Z,100260.13
2019-05-05T19:34:54.342Z,100262.74
2019-05-05T19:39:58.490Z,100261.75
2019-05-05T19:45:04.314Z,100261.75
2019-05-05T19:50:26.304Z,100266.98
2019-05-05T19:55:30.435Z,100269.61
2019-05-05T20:00:35.818Z,100260.81
2019-05-05T20:05:43.087Z,100263.84
2019-05-05T20:10:46.114Z,100261.11
2019-05-05T20:15:56.852Z,100261.11
2019-05-05T20:21:04.780Z,100267.93
2019-05-05T20:26:07.378Z,100258.25
2019-05-05T20:31:11.405Z,100261.75
2019-05-05T20:36:18.563Z,100261.03
2019-05-05T20:41:24.860Z,100259.03
2019-05-05T20:46:30.360Z,100264.17
2019-05-05T20:51:34.401Z,100252.53
2019-05-05T20:56:38.667Z,100259.27
2019-05-05T21:01:43.876Z,100257.16
2019-05-05T21:06:48.387Z,100262.55
2019-05-05T21:11:54.573Z,100258.25
2019-05-05T21:16:58.443Z,100264.13
2019-05-05T21:22:21.495Z,100261.06
2019-05-05T21:27:25.667Z,100257.51
2019-05-05T21:32:29.747Z,100257.51
2019-05-05T21:37:34.094Z,100249.14
2019-05-05T21:42:38.184Z,100250.48
2019-05-05T21:47:44.224Z,100249.63
2019-05-05T21:52:57.038Z,100250.12
2019-05-05T21:58:22.238Z,100251.09
2019-05-05T22:03:31.665Z,100251.09
2019-05-05T22:08:36.463Z,100250.61
2019-05-05T22:13:40.588Z,100248.40
2019-05-05T22:18:46.737Z,100247.05
2019-05-05T22:24:08.363Z,100247.63
2019-05-05T22:29:14.092Z,100234.64
2019-05-05T22:34:18.592Z,100234.77
2019-05-05T22:39:24.329Z,100231.70
2019-05-05T22:44:28.966Z,100215.83
2019-05-05T22:49:33.145Z,100237.34
2019-05-05T22:54:38.827Z,100236.94
2019-05-05T22:59:43.299Z,100236.94
2019-05-05T23:05:05.351Z,100244.45
2019-05-05T23:10:10.098Z,100234.16
2019-05-05T23:15:16.149Z,100234.16
2019-05-05T23:21:07.657Z,100241.75
2019-05-05T23:26:14.021Z,100236.36
2019-05-05T23:31:18.408Z,100236.36
2019-05-05T23:36:24.185Z,100235.75
2019-05-05T23:41:28.817Z,100240.16
2019-05-05T23:46:34.860Z,100221.38
2019-05-05T23:51:39.511Z,100244.98
2019-05-05T23:56:44.206Z,100239.95
